sensor_id;sensor_type;location;lat;lon;timestamp;P1;durP1;ratioP1;P2;durP2;ratioP2
4074;SDS011;2052;53.522;9.806;2023-06-14T00:00:33;5.80;;;3.70;;
4074;SDS011;2052;53.522;9.806;2023-06-14T00:03:00;6.13;;;4.00;;
4074;SDS011;2052;53.522;9.806;2023-06-14T00:05:28;8.97;;;3.33;;
4074;SDS011;2052;53.522;9.806;2023-06-14T00:07:57;10.30;;;3.70;;
4074;SDS011;2052;53.522;9.806;2023-06-14T00:10:25;7.23;;;3.30;;
4074;SDS011;2052;53.522;9.806;2023-06-14T00:12:55;5.20;;;3.73;;
4074;SDS011;2052;53.522;9.806;2023-06-14T00:15:22;3.40;;;3.10;;
4074;SDS011;2052;53.522;9.806;2023-06-14T00:17:49;6.53;;;3.70;;
4074;SDS011;2052;53.522;9.806;2023-06-14T00:20:16;5.97;;;3.50;;
4074;SDS011;2052;53.522;9.806;2023-06-14T00:22:43;9.53;;;3.63;;
4074;SDS011;2052;53.522;9.806;2023-06-14T00:25:10;5.43;;;4.10;;
4074;SDS011;2052;53.522;9.806;2023-06-14T00:27:37;6.00;;;4.27;;
4074;SDS011;2052;53.522;9.806;2023-06-14T00:30:04;6.53;;;4.07;;
4074;SDS011;2052;53.522;9.806;2023-06-14T00:32:31;6.60;;;3.83;;
4074;SDS011;2052;53.522;9.806;2023-06-14T00:34:57;9.10;;;3.87;;
4074;SDS011;2052;53.522;9.806;2023-06-14T00:37:24;8.13;;;4.23;;
4074;SDS011;2052;53.522;9.806;2023-06-14T00:39:52;9.00;;;4.10;;
4074;SDS011;2052;53.522;9.806;2023-06-14T00:42:25;13.13;;;4.10;;
4074;SDS011;2052;53.522;9.806;2023-06-14T00:44:52;4.23;;;3.67;;
4074;SDS011;2052;53.522;9.806;2023-06-14T00:47:19;5.90;;;3.90;;
4074;SDS011;2052;53.522;9.806;2023-06-14T00:49:45;5.77;;;4.27;;
4074;SDS011;2052;53.522;9.806;2023-06-14T00:52:13;9.27;;;4.60;;
4074;SDS011;2052;53.522;9.806;2023-06-14T00:54:40;5.73;;;4.23;;
4074;SDS011;2052;53.522;9.806;2023-06-14T00:57:08;6.80;;;4.43;;
4074;SDS011;2052;53.522;9.806;2023-06-14T00:59:36;9.50;;;4.60;;
4074;SDS011;2052;53.522;9.806;2023-06-14T01:02:11;7.73;;;4.43;;
4074;SDS011;2052;53.522;9.806;2023-06-14T01:04:40;6.10;;;4.40;;
4074;SDS011;2052;53.522;9.806;2023-06-14T01:07:11;7.40;;;4.30;;
4074;SDS011;2052;53.522;9.806;2023-06-14T01:09:48;8.70;;;4.00;;
4074;SDS011;2052;53.522;9.806;2023-06-14T01:12:21;7.07;;;4.80;;
4074;SDS011;2052;53.522;9.806;2023-06-14T01:14:51;5.23;;;4.30;;
4074;SDS011;2052;53.522;9.806;2023-06-14T01:17:20;7.80;;;4.47;;
4074;SDS011;2052;53.522;9.806;2023-06-14T01:19:50;8.30;;;4.60;;
4074;SDS011;2052;53.522;9.806;2023-06-14T01:22:23;8.63;;;4.90;;
4074;SDS011;2052;53.522;9.806;2023-06-14T01:24:52;6.73;;;4.23;;
4074;SDS011;2052;53.522;9.806;2023-06-14T01:27:20;7.70;;;4.50;;
4074;SDS011;2052;53.522;9.806;2023-06-14T01:29:49;7.00;;;4.47;;
4074;SDS011;2052;53.522;9.806;2023-06-14T01:32:17;6.70;;;4.60;;
4074;SDS011;2052;53.522;9.806;2023-06-14T01:34:44;7.00;;;4.63;;
4074;SDS011;2052;53.522;9.806;2023-06-14T01:37:12;9.93;;;4.43;;
4074;SDS011;2052;53.522;9.806;2023-06-14T01:39:39;9.93;;;4.60;;
4074;SDS011;2052;53.522;9.806;2023-06-14T01:42:08;6.50;;;4.90;;
4074;SDS011;2052;53.522;9.806;2023-06-14T01:44:36;8.00;;;4.43;;
4074;SDS011;2052;53.522;9.806;2023-06-14T01:47:03;8.27;;;5.20;;
4074;SDS011;2052;53.522;9.806;2023-06-14T01:49:32;8.43;;;5.00;;
4074;SDS011;2052;53.522;9.806;2023-06-14T01:51:59;13.13;;;5.37;;
4074;SDS011;2052;53.522;9.806;2023-06-14T01:54:26;8.80;;;4.73;;
4074;SDS011;2052;53.522;9.806;2023-06-14T01:56:54;7.37;;;5.40;;
4074;SDS011;2052;53.522;9.806;2023-06-14T01:59:22;9.90;;;5.17;;
4074;SDS011;2052;53.522;9.806;2023-06-14T02:01:49;9.33;;;4.83;;
4074;SDS011;2052;53.522;9.806;2023-06-14T02:04:16;10.77;;;4.80;;
4074;SDS011;2052;53.522;9.806;2023-06-14T02:06:43;9.30;;;5.17;;
4074;SDS011;2052;53.522;9.806;2023-06-14T02:09:09;6.27;;;5.20;;
4074;SDS011;2052;53.522;9.806;2023-06-14T02:11:36;9.60;;;4.90;;
4074;SDS011;2052;53.522;9.806;2023-06-14T02:14:03;7.20;;;4.70;;
4074;SDS011;2052;53.522;9.806;2023-06-14T02:16:31;8.03;;;4.93;;
4074;SDS011;2052;53.522;9.806;2023-06-14T02:18:57;10.23;;;4.90;;
4074;SDS011;2052;53.522;9.806;2023-06-14T02:21:24;9.70;;;4.80;;
4074;SDS011;2052;53.522;9.806;2023-06-14T02:23:51;8.93;;;4.50;;
4074;SDS011;2052;53.522;9.806;2023-06-14T02:26:18;7.87;;;4.23;;
4074;SDS011;2052;53.522;9.806;2023-06-14T02:28:44;5.90;;;3.80;;
4074;SDS011;2052;53.522;9.806;2023-06-14T02:31:11;9.47;;;4.57;;
4074;SDS011;2052;53.522;9.806;2023-06-14T02:33:39;6.13;;;4.00;;
4074;SDS011;2052;53.522;9.806;2023-06-14T02:36:06;8.33;;;4.90;;
4074;SDS011;2052;53.522;9.806;2023-06-14T02:38:33;6.97;;;4.63;;
4074;SDS011;2052;53.522;9.806;2023-06-14T02:40:59;6.80;;;4.33;;
4074;SDS011;2052;53.522;9.806;2023-06-14T02:43:28;8.67;;;4.60;;
4074;SDS011;2052;53.522;9.806;2023-06-14T02:45:55;10.33;;;5.27;;
4074;SDS011;2052;53.522;9.806;2023-06-14T02:48:22;6.13;;;4.50;;
4074;SDS011;2052;53.522;9.806;2023-06-14T02:50:50;10.97;;;5.20;;
4074;SDS011;2052;53.522;9.806;2023-06-14T02:53:16;6.60;;;4.00;;
4074;SDS011;2052;53.522;9.806;2023-06-14T02:55:43;8.53;;;4.60;;
4074;SDS011;2052;53.522;9.806;2023-06-14T02:58:11;7.33;;;4.57;;
4074;SDS011;2052;53.522;9.806;2023-06-14T03:00:38;12.73;;;4.87;;
4074;SDS011;2052;53.522;9.806;2023-06-14T03:03:06;8.77;;;5.23;;
4074;SDS011;2052;53.522;9.806;2023-06-14T03:05:38;7.03;;;4.87;;
4074;SDS011;2052;53.522;9.806;2023-06-14T03:08:07;8.40;;;5.00;;
4074;SDS011;2052;53.522;9.806;2023-06-14T03:10:33;7.40;;;4.93;;
4074;SDS011;2052;53.522;9.806;2023-06-14T03:13:01;7.73;;;4.70;;
4074;SDS011;2052;53.522;9.806;2023-06-14T03:15:27;7.13;;;5.20;;
4074;SDS011;2052;53.522;9.806;2023-06-14T03:17:56;9.57;;;5.30;;
4074;SDS011;2052;53.522;9.806;2023-06-14T03:20:25;9.43;;;4.97;;
4074;SDS011;2052;53.522;9.806;2023-06-14T03:22:54;10.57;;;5.30;;
4074;SDS011;2052;53.522;9.806;2023-06-14T03:25:21;9.43;;;5.17;;
4074;SDS011;2052;53.522;9.806;2023-06-14T03:27:48;8.03;;;5.03;;
4074;SDS011;2052;53.522;9.806;2023-06-14T03:30:15;13.30;;;5.50;;
4074;SDS011;2052;53.522;9.806;2023-06-14T03:32:41;10.13;;;5.20;;
4074;SDS011;2052;53.522;9.806;2023-06-14T03:35:08;9.70;;;5.57;;
4074;SDS011;2052;53.522;9.806;2023-06-14T03:37:41;7.33;;;4.87;;
4074;SDS011;2052;53.522;9.806;2023-06-14T03:40:08;8.70;;;5.03;;
4074;SDS011;2052;53.522;9.806;2023-06-14T03:42:38;5.10;;;4.10;;
4074;SDS011;2052;53.522;9.806;2023-06-14T03:45:06;7.70;;;4.53;;
4074;SDS011;2052;53.522;9.806;2023-06-14T03:47:33;6.83;;;4.23;;
4074;SDS011;2052;53.522;9.806;2023-06-14T03:50:00;8.53;;;3.60;;
4074;SDS011;2052;53.522;9.806;2023-06-14T03:52:27;6.90;;;3.63;;
4074;SDS011;2052;53.522;9.806;2023-06-14T03:54:53;7.00;;;4.20;;
4074;SDS011;2052;53.522;9.806;2023-06-14T03:57:21;7.60;;;4.20;;
4074;SDS011;2052;53.522;9.806;2023-06-14T03:59:50;12.30;;;4.17;;
4074;SDS011;2052;53.522;9.806;2023-06-14T04:02:17;5.80;;;4.00;;
4074;SDS011;2052;53.522;9.806;2023-06-14T04:04:44;8.70;;;4.60;;
4074;SDS011;2052;53.522;9.806;2023-06-14T04:07:11;8.60;;;3.60;;
4074;SDS011;2052;53.522;9.806;2023-06-14T04:09:39;6.93;;;3.97;;
4074;SDS011;2052;53.522;9.806;2023-06-14T04:12:06;6.30;;;4.37;;
4074;SDS011;2052;53.522;9.806;2023-06-14T04:14:33;8.30;;;4.33;;
4074;SDS011;2052;53.522;9.806;2023-06-14T04:17:01;10.00;;;4.60;;
4074;SDS011;2052;53.522;9.806;2023-06-14T04:19:28;6.87;;;4.43;;
4074;SDS011;2052;53.522;9.806;2023-06-14T04:21:56;9.70;;;4.70;;
4074;SDS011;2052;53.522;9.806;2023-06-14T04:24:27;5.87;;;4.50;;
4074;SDS011;2052;53.522;9.806;2023-06-14T04:26:57;10.60;;;4.90;;
4074;SDS011;2052;53.522;9.806;2023-06-14T04:29:27;8.43;;;5.30;;
4074;SDS011;2052;53.522;9.806;2023-06-14T04:31:55;9.30;;;5.00;;
4074;SDS011;2052;53.522;9.806;2023-06-14T04:34:25;6.07;;;4.90;;
4074;SDS011;2052;53.522;9.806;2023-06-14T04:36:55;7.20;;;5.03;;
4074;SDS011;2052;53.522;9.806;2023-06-14T04:39:27;9.50;;;4.60;;
4074;SDS011;2052;53.522;9.806;2023-06-14T04:41:53;5.90;;;4.63;;
4074;SDS011;2052;53.522;9.806;2023-06-14T04:44:22;10.47;;;4.77;;
4074;SDS011;2052;53.522;9.806;2023-06-14T04:46:55;8.90;;;4.37;;
4074;SDS011;2052;53.522;9.806;2023-06-14T04:49:22;8.67;;;4.67;;
4074;SDS011;2052;53.522;9.806;2023-06-14T04:51:50;8.50;;;4.20;;
4074;SDS011;2052;53.522;9.806;2023-06-14T04:54:22;12.27;;;4.30;;
4074;SDS011;2052;53.522;9.806;2023-06-14T04:56:50;11.23;;;4.07;;
4074;SDS011;2052;53.522;9.806;2023-06-14T04:59:18;6.83;;;3.87;;
4074;SDS011;2052;53.522;9.806;2023-06-14T05:01:45;5.97;;;3.67;;
4074;SDS011;2052;53.522;9.806;2023-06-14T05:04:13;8.50;;;4.23;;
4074;SDS011;2052;53.522;9.806;2023-06-14T05:06:40;9.67;;;4.30;;
4074;SDS011;2052;53.522;9.806;2023-06-14T05:09:08;6.10;;;3.83;;
4074;SDS011;2052;53.522;9.806;2023-06-14T05:11:35;7.20;;;3.87;;
4074;SDS011;2052;53.522;9.806;2023-06-14T05:14:01;6.30;;;4.23;;
4074;SDS011;2052;53.522;9.806;2023-06-14T05:16:28;8.57;;;4.07;;
4074;SDS011;2052;53.522;9.806;2023-06-14T05:18:55;5.33;;;4.30;;
4074;SDS011;2052;53.522;9.806;2023-06-14T05:21:22;11.03;;;4.33;;
4074;SDS011;2052;53.522;9.806;2023-06-14T05:23:49;7.47;;;4.10;;
4074;SDS011;2052;53.522;9.806;2023-06-14T05:26:17;5.77;;;4.00;;
4074;SDS011;2052;53.522;9.806;2023-06-14T05:28:45;9.37;;;3.80;;
4074;SDS011;2052;53.522;9.806;2023-06-14T05:31:11;7.23;;;3.90;;
4074;SDS011;2052;53.522;9.806;2023-06-14T05:33:38;9.80;;;3.80;;
4074;SDS011;2052;53.522;9.806;2023-06-14T05:36:05;4.90;;;3.33;;
4074;SDS011;2052;53.522;9.806;2023-06-14T05:38:32;7.57;;;4.00;;
4074;SDS011;2052;53.522;9.806;2023-06-14T05:40:58;4.23;;;3.47;;
4074;SDS011;2052;53.522;9.806;2023-06-14T05:43:26;5.43;;;3.70;;
4074;SDS011;2052;53.522;9.806;2023-06-14T05:45:53;9.90;;;4.57;;
4074;SDS011;2052;53.522;9.806;2023-06-14T05:48:21;13.97;;;4.43;;
4074;SDS011;2052;53.522;9.806;2023-06-14T05:50:47;9.70;;;4.80;;
4074;SDS011;2052;53.522;9.806;2023-06-14T05:53:14;8.50;;;4.03;;
4074;SDS011;2052;53.522;9.806;2023-06-14T05:55:41;5.33;;;3.97;;
4074;SDS011;2052;53.522;9.806;2023-06-14T05:58:07;6.13;;;3.70;;
4074;SDS011;2052;53.522;9.806;2023-06-14T06:00:35;8.47;;;3.67;;
4074;SDS011;2052;53.522;9.806;2023-06-14T06:03:02;5.57;;;3.80;;
4074;SDS011;2052;53.522;9.806;2023-06-14T06:05:29;4.87;;;3.43;;
4074;SDS011;2052;53.522;9.806;2023-06-14T06:07:56;7.10;;;3.87;;
4074;SDS011;2052;53.522;9.806;2023-06-14T06:10:23;7.90;;;4.53;;
4074;SDS011;2052;53.522;9.806;2023-06-14T06:12:49;11.17;;;4.10;;
4074;SDS011;2052;53.522;9.806;2023-06-14T06:15:17;9.77;;;4.50;;
4074;SDS011;2052;53.522;9.806;2023-06-14T06:17:45;10.10;;;4.10;;
4074;SDS011;2052;53.522;9.806;2023-06-14T06:20:12;5.50;;;3.80;;
4074;SDS011;2052;53.522;9.806;2023-06-14T06:22:52;16.03;;;5.10;;
4074;SDS011;2052;53.522;9.806;2023-06-14T06:25:19;12.50;;;5.07;;
4074;SDS011;2052;53.522;9.806;2023-06-14T06:27:47;7.00;;;4.27;;
4074;SDS011;2052;53.522;9.806;2023-06-14T06:30:14;8.87;;;4.17;;
4074;SDS011;2052;53.522;9.806;2023-06-14T06:32:40;8.80;;;4.40;;
4074;SDS011;2052;53.522;9.806;2023-06-14T06:35:09;5.50;;;3.17;;
4074;SDS011;2052;53.522;9.806;2023-06-14T06:37:38;7.73;;;3.33;;
4074;SDS011;2052;53.522;9.806;2023-06-14T06:40:05;7.40;;;3.53;;
4074;SDS011;2052;53.522;9.806;2023-06-14T06:42:34;6.70;;;3.30;;
4074;SDS011;2052;53.522;9.806;2023-06-14T06:45:02;4.17;;;3.30;;
4074;SDS011;2052;53.522;9.806;2023-06-14T06:47:29;4.33;;;2.70;;
4074;SDS011;2052;53.522;9.806;2023-06-14T06:49:56;4.37;;;3.60;;
4074;SDS011;2052;53.522;9.806;2023-06-14T06:52:27;6.63;;;3.00;;
4074;SDS011;2052;53.522;9.806;2023-06-14T06:54:54;7.63;;;2.90;;
4074;SDS011;2052;53.522;9.806;2023-06-14T06:57:21;10.17;;;2.67;;
4074;SDS011;2052;53.522;9.806;2023-06-14T06:59:48;3.20;;;2.70;;
4074;SDS011;2052;53.522;9.806;2023-06-14T07:02:15;6.27;;;2.83;;
4074;SDS011;2052;53.522;9.806;2023-06-14T07:04:41;3.97;;;2.50;;
4074;SDS011;2052;53.522;9.806;2023-06-14T07:07:08;3.93;;;2.80;;
4074;SDS011;2052;53.522;9.806;2023-06-14T07:09:37;7.87;;;3.60;;
4074;SDS011;2052;53.522;9.806;2023-06-14T07:12:06;6.40;;;3.37;;
4074;SDS011;2052;53.522;9.806;2023-06-14T07:14:33;8.10;;;3.87;;
4074;SDS011;2052;53.522;9.806;2023-06-14T07:17:00;9.03;;;4.07;;
4074;SDS011;2052;53.522;9.806;2023-06-14T07:19:28;6.73;;;3.60;;
4074;SDS011;2052;53.522;9.806;2023-06-14T07:21:55;8.93;;;3.97;;
4074;SDS011;2052;53.522;9.806;2023-06-14T07:24:23;6.60;;;3.03;;
4074;SDS011;2052;53.522;9.806;2023-06-14T07:26:51;6.93;;;3.40;;
4074;SDS011;2052;53.522;9.806;2023-06-14T07:29:18;8.73;;;3.77;;
4074;SDS011;2052;53.522;9.806;2023-06-14T07:31:44;5.87;;;3.03;;
4074;SDS011;2052;53.522;9.806;2023-06-14T07:34:11;4.50;;;3.47;;
4074;SDS011;2052;53.522;9.806;2023-06-14T07:36:38;4.90;;;2.30;;
4074;SDS011;2052;53.522;9.806;2023-06-14T07:39:05;6.00;;;3.40;;
4074;SDS011;2052;53.522;9.806;2023-06-14T07:41:32;4.47;;;3.40;;
4074;SDS011;2052;53.522;9.806;2023-06-14T07:44:00;7.40;;;3.30;;
4074;SDS011;2052;53.522;9.806;2023-06-14T07:46:26;3.97;;;2.80;;
4074;SDS011;2052;53.522;9.806;2023-06-14T07:48:53;7.50;;;3.40;;
4074;SDS011;2052;53.522;9.806;2023-06-14T07:51:19;10.20;;;4.00;;
4074;SDS011;2052;53.522;9.806;2023-06-14T07:53:47;2.60;;;2.40;;
4074;SDS011;2052;53.522;9.806;2023-06-14T07:56:14;5.20;;;2.70;;
4074;SDS011;2052;53.522;9.806;2023-06-14T07:58:41;3.13;;;2.00;;
4074;SDS011;2052;53.522;9.806;2023-06-14T08:01:10;5.87;;;2.77;;
4074;SDS011;2052;53.522;9.806;2023-06-14T08:03:37;3.97;;;2.67;;
4074;SDS011;2052;53.522;9.806;2023-06-14T08:06:04;6.63;;;2.87;;
4074;SDS011;2052;53.522;9.806;2023-06-14T08:08:31;4.50;;;2.87;;
4074;SDS011;2052;53.522;9.806;2023-06-14T08:10:57;4.10;;;3.00;;
4074;SDS011;2052;53.522;9.806;2023-06-14T08:13:24;4.43;;;3.00;;
4074;SDS011;2052;53.522;9.806;2023-06-14T08:15:50;5.13;;;2.90;;
4074;SDS011;2052;53.522;9.806;2023-06-14T08:18:18;3.60;;;2.60;;
4074;SDS011;2052;53.522;9.806;2023-06-14T08:20:45;3.50;;;2.70;;
4074;SDS011;2052;53.522;9.806;2023-06-14T08:23:12;11.40;;;2.73;;
4074;SDS011;2052;53.522;9.806;2023-06-14T08:25:39;5.70;;;3.07;;
4074;SDS011;2052;53.522;9.806;2023-06-14T08:28:05;3.13;;;2.83;;
4074;SDS011;2052;53.522;9.806;2023-06-14T08:30:32;13.73;;;3.17;;
4074;SDS011;2052;53.522;9.806;2023-06-14T08:32:59;3.33;;;2.70;;
4074;SDS011;2052;53.522;9.806;2023-06-14T08:35:27;3.87;;;2.37;;
4074;SDS011;2052;53.522;9.806;2023-06-14T08:37:54;4.90;;;2.70;;
4074;SDS011;2052;53.522;9.806;2023-06-14T08:40:21;5.87;;;2.70;;
4074;SDS011;2052;53.522;9.806;2023-06-14T08:42:50;11.53;;;3.27;;
4074;SDS011;2052;53.522;9.806;2023-06-14T08:45:18;4.50;;;2.90;;
4074;SDS011;2052;53.522;9.806;2023-06-14T08:47:46;4.60;;;3.03;;
4074;SDS011;2052;53.522;9.806;2023-06-14T08:50:19;4.93;;;2.53;;
4074;SDS011;2052;53.522;9.806;2023-06-14T08:52:50;8.17;;;3.40;;
4074;SDS011;2052;53.522;9.806;2023-06-14T08:55:19;4.00;;;2.77;;
4074;SDS011;2052;53.522;9.806;2023-06-14T08:57:46;4.23;;;2.90;;
4074;SDS011;2052;53.522;9.806;2023-06-14T09:00:13;7.00;;;3.50;;
4074;SDS011;2052;53.522;9.806;2023-06-14T09:02:40;3.90;;;3.03;;
4074;SDS011;2052;53.522;9.806;2023-06-14T09:05:08;4.47;;;3.43;;
4074;SDS011;2052;53.522;9.806;2023-06-14T09:07:35;4.70;;;3.87;;
4074;SDS011;2052;53.522;9.806;2023-06-14T09:10:08;5.90;;;4.37;;
4074;SDS011;2052;53.522;9.806;2023-06-14T09:12:35;6.40;;;3.23;;
4074;SDS011;2052;53.522;9.806;2023-06-14T09:15:02;4.27;;;3.10;;
4074;SDS011;2052;53.522;9.806;2023-06-14T09:17:32;5.50;;;3.90;;
4074;SDS011;2052;53.522;9.806;2023-06-14T09:20:00;8.37;;;3.13;;
4074;SDS011;2052;53.522;9.806;2023-06-14T09:22:30;5.00;;;3.40;;
4074;SDS011;2052;53.522;9.806;2023-06-14T09:24:57;5.80;;;3.30;;
4074;SDS011;2052;53.522;9.806;2023-06-14T09:27:26;8.73;;;3.80;;
4074;SDS011;2052;53.522;9.806;2023-06-14T09:29:53;7.03;;;3.27;;
4074;SDS011;2052;53.522;9.806;2023-06-14T09:32:20;5.00;;;3.20;;
4074;SDS011;2052;53.522;9.806;2023-06-14T09:34:49;8.53;;;3.03;;
4074;SDS011;2052;53.522;9.806;2023-06-14T09:37:26;5.10;;;3.20;;
4074;SDS011;2052;53.522;9.806;2023-06-14T09:39:54;9.27;;;3.20;;
4074;SDS011;2052;53.522;9.806;2023-06-14T09:42:21;6.13;;;3.70;;
4074;SDS011;2052;53.522;9.806;2023-06-14T09:44:52;7.23;;;3.20;;
4074;SDS011;2052;53.522;9.806;2023-06-14T09:47:19;7.33;;;3.10;;
4074;SDS011;2052;53.522;9.806;2023-06-14T09:49:46;5.23;;;3.27;;
4074;SDS011;2052;53.522;9.806;2023-06-14T09:52:14;6.80;;;3.10;;
4074;SDS011;2052;53.522;9.806;2023-06-14T09:54:42;6.63;;;3.20;;
4074;SDS011;2052;53.522;9.806;2023-06-14T09:57:11;7.93;;;3.60;;
4074;SDS011;2052;53.522;9.806;2023-06-14T09:59:40;4.33;;;2.87;;
4074;SDS011;2052;53.522;9.806;2023-06-14T10:02:10;6.03;;;3.10;;
4074;SDS011;2052;53.522;9.806;2023-06-14T10:04:41;5.37;;;3.63;;
4074;SDS011;2052;53.522;9.806;2023-06-14T10:07:13;4.43;;;2.90;;
4074;SDS011;2052;53.522;9.806;2023-06-14T10:09:41;4.40;;;3.90;;
4074;SDS011;2052;53.522;9.806;2023-06-14T10:12:10;4.73;;;3.30;;
4074;SDS011;2052;53.522;9.806;2023-06-14T10:14:44;5.27;;;3.13;;
4074;SDS011;2052;53.522;9.806;2023-06-14T10:17:12;6.13;;;3.47;;
4074;SDS011;2052;53.522;9.806;2023-06-14T10:19:48;5.63;;;3.70;;
4074;SDS011;2052;53.522;9.806;2023-06-14T10:22:23;5.80;;;3.77;;
4074;SDS011;2052;53.522;9.806;2023-06-14T10:24:53;3.80;;;3.17;;
4074;SDS011;2052;53.522;9.806;2023-06-14T10:27:20;5.40;;;2.90;;
4074;SDS011;2052;53.522;9.806;2023-06-14T10:30:04;3.43;;;2.60;;
4074;SDS011;2052;53.522;9.806;2023-06-14T10:32:35;4.20;;;3.43;;
4074;SDS011;2052;53.522;9.806;2023-06-14T10:35:31;4.70;;;3.03;;
4074;SDS011;2052;53.522;9.806;2023-06-14T10:38:05;4.83;;;3.50;;
4074;SDS011;2052;53.522;9.806;2023-06-14T10:40:33;5.20;;;3.30;;
4074;SDS011;2052;53.522;9.806;2023-06-14T10:43:00;3.90;;;3.30;;
4074;SDS011;2052;53.522;9.806;2023-06-14T10:45:27;5.80;;;3.43;;
4074;SDS011;2052;53.522;9.806;2023-06-14T10:47:56;6.13;;;3.17;;
4074;SDS011;2052;53.522;9.806;2023-06-14T10:50:27;5.50;;;3.80;;
4074;SDS011;2052;53.522;9.806;2023-06-14T10:52:54;4.10;;;3.60;;
4074;SDS011;2052;53.522;9.806;2023-06-14T10:55:21;4.17;;;3.37;;
4074;SDS011;2052;53.522;9.806;2023-06-14T10:57:50;8.50;;;3.63;;
4074;SDS011;2052;53.522;9.806;2023-06-14T11:00:21;4.60;;;3.70;;
4074;SDS011;2052;53.522;9.806;2023-06-14T11:05:53;5.97;;;4.50;;
4074;SDS011;2052;53.522;9.806;2023-06-14T11:08:27;4.67;;;3.43;;
4074;SDS011;2052;53.522;9.806;2023-06-14T11:11:06;7.43;;;3.20;;
4074;SDS011;2052;53.522;9.806;2023-06-14T11:13:33;8.27;;;4.03;;
4074;SDS011;2052;53.522;9.806;2023-06-14T11:16:01;5.90;;;3.70;;
4074;SDS011;2052;53.522;9.806;2023-06-14T11:18:29;4.53;;;3.30;;
4074;SDS011;2052;53.522;9.806;2023-06-14T11:20:57;3.90;;;3.10;;
4074;SDS011;2052;53.522;9.806;2023-06-14T11:23:23;6.20;;;3.53;;
4074;SDS011;2052;53.522;9.806;2023-06-14T11:25:50;5.63;;;3.37;;
4074;SDS011;2052;53.522;9.806;2023-06-14T11:28:17;5.70;;;3.67;;
4074;SDS011;2052;53.522;9.806;2023-06-14T11:30:44;6.03;;;3.40;;
4074;SDS011;2052;53.522;9.806;2023-06-14T11:33:11;3.40;;;3.00;;
4074;SDS011;2052;53.522;9.806;2023-06-14T11:35:40;3.97;;;3.40;;
4074;SDS011;2052;53.522;9.806;2023-06-14T11:38:11;4.73;;;3.27;;
4074;SDS011;2052;53.522;9.806;2023-06-14T11:40:38;8.20;;;3.20;;
4074;SDS011;2052;53.522;9.806;2023-06-14T11:43:05;3.13;;;2.83;;
4074;SDS011;2052;53.522;9.806;2023-06-14T11:45:32;4.37;;;2.97;;
4074;SDS011;2052;53.522;9.806;2023-06-14T11:47:58;3.77;;;2.97;;
4074;SDS011;2052;53.522;9.806;2023-06-14T11:50:25;4.80;;;3.40;;
4074;SDS011;2052;53.522;9.806;2023-06-14T11:52:53;5.33;;;3.77;;
4074;SDS011;2052;53.522;9.806;2023-06-14T11:55:21;8.50;;;3.70;;
4074;SDS011;2052;53.522;9.806;2023-06-14T11:57:48;4.97;;;3.43;;
4074;SDS011;2052;53.522;9.806;2023-06-14T12:00:15;5.00;;;4.00;;
4074;SDS011;2052;53.522;9.806;2023-06-14T12:02:42;7.80;;;3.40;;
4074;SDS011;2052;53.522;9.806;2023-06-14T12:05:20;7.10;;;4.07;;
4074;SDS011;2052;53.522;9.806;2023-06-14T12:07:47;7.03;;;3.80;;
4074;SDS011;2052;53.522;9.806;2023-06-14T12:10:13;7.83;;;3.40;;
4074;SDS011;2052;53.522;9.806;2023-06-14T12:12:42;6.70;;;3.33;;
4074;SDS011;2052;53.522;9.806;2023-06-14T12:15:11;4.60;;;3.40;;
4074;SDS011;2052;53.522;9.806;2023-06-14T12:17:38;5.57;;;3.47;;
4074;SDS011;2052;53.522;9.806;2023-06-14T12:20:07;5.20;;;3.40;;
4074;SDS011;2052;53.522;9.806;2023-06-14T12:22:36;3.90;;;3.07;;
4074;SDS011;2052;53.522;9.806;2023-06-14T12:25:03;4.03;;;3.60;;
4074;SDS011;2052;53.522;9.806;2023-06-14T12:27:30;4.47;;;3.27;;
4074;SDS011;2052;53.522;9.806;2023-06-14T12:30:00;6.13;;;3.43;;
4074;SDS011;2052;53.522;9.806;2023-06-14T12:32:27;9.20;;;3.93;;
4074;SDS011;2052;53.522;9.806;2023-06-14T12:34:54;9.07;;;3.73;;
4074;SDS011;2052;53.522;9.806;2023-06-14T12:37:21;6.03;;;3.53;;
4074;SDS011;2052;53.522;9.806;2023-06-14T12:39:47;5.87;;;3.77;;
4074;SDS011;2052;53.522;9.806;2023-06-14T12:42:15;6.77;;;3.47;;
4074;SDS011;2052;53.522;9.806;2023-06-14T12:44:42;6.70;;;3.43;;
4074;SDS011;2052;53.522;9.806;2023-06-14T12:47:10;5.60;;;3.43;;
4074;SDS011;2052;53.522;9.806;2023-06-14T12:49:38;9.07;;;3.90;;
4074;SDS011;2052;53.522;9.806;2023-06-14T12:52:06;5.57;;;3.50;;
4074;SDS011;2052;53.522;9.806;2023-06-14T12:54:33;5.90;;;3.67;;
4074;SDS011;2052;53.522;9.806;2023-06-14T12:57:00;10.47;;;4.13;;
4074;SDS011;2052;53.522;9.806;2023-06-14T12:59:28;7.63;;;3.20;;
4074;SDS011;2052;53.522;9.806;2023-06-14T13:01:58;12.57;;;4.03;;
4074;SDS011;2052;53.522;9.806;2023-06-14T13:04:27;13.37;;;4.20;;
4074;SDS011;2052;53.522;9.806;2023-06-14T13:06:53;5.43;;;3.50;;
4074;SDS011;2052;53.522;9.806;2023-06-14T13:09:20;4.77;;;3.03;;
4074;SDS011;2052;53.522;9.806;2023-06-14T13:11:46;4.00;;;3.20;;
4074;SDS011;2052;53.522;9.806;2023-06-14T13:14:13;6.27;;;3.77;;
4074;SDS011;2052;53.522;9.806;2023-06-14T13:16:40;3.13;;;2.83;;
4074;SDS011;2052;53.522;9.806;2023-06-14T13:19:06;5.40;;;3.30;;
4074;SDS011;2052;53.522;9.806;2023-06-14T13:21:34;7.60;;;3.90;;
4074;SDS011;2052;53.522;9.806;2023-06-14T13:24:01;8.43;;;3.90;;
4074;SDS011;2052;53.522;9.806;2023-06-14T13:26:28;3.60;;;3.17;;
4074;SDS011;2052;53.522;9.806;2023-06-14T13:28:54;6.33;;;3.70;;
4074;SDS011;2052;53.522;9.806;2023-06-14T13:31:21;4.00;;;3.53;;
4074;SDS011;2052;53.522;9.806;2023-06-14T13:33:47;4.60;;;3.43;;
4074;SDS011;2052;53.522;9.806;2023-06-14T13:36:14;7.67;;;3.43;;
4074;SDS011;2052;53.522;9.806;2023-06-14T13:38:42;9.10;;;3.50;;
4074;SDS011;2052;53.522;9.806;2023-06-14T13:41:09;4.10;;;3.30;;
4074;SDS011;2052;53.522;9.806;2023-06-14T13:43:35;6.80;;;3.27;;
4074;SDS011;2052;53.522;9.806;2023-06-14T13:46:02;5.03;;;3.60;;
4074;SDS011;2052;53.522;9.806;2023-06-14T13:48:28;3.57;;;2.90;;
4074;SDS011;2052;53.522;9.806;2023-06-14T13:50:55;7.10;;;3.90;;
4074;SDS011;2052;53.522;9.806;2023-06-14T13:53:22;5.83;;;3.30;;
4074;SDS011;2052;53.522;9.806;2023-06-14T13:55:50;6.80;;;3.47;;
4074;SDS011;2052;53.522;9.806;2023-06-14T13:58:17;5.43;;;3.10;;
4074;SDS011;2052;53.522;9.806;2023-06-14T14:00:44;4.40;;;3.33;;
4074;SDS011;2052;53.522;9.806;2023-06-14T14:03:10;4.50;;;3.17;;
4074;SDS011;2052;53.522;9.806;2023-06-14T14:05:37;4.83;;;2.83;;
4074;SDS011;2052;53.522;9.806;2023-06-14T14:08:03;4.20;;;3.20;;
4074;SDS011;2052;53.522;9.806;2023-06-14T14:10:31;3.07;;;2.67;;
4074;SDS011;2052;53.522;9.806;2023-06-14T14:12:59;6.70;;;4.37;;
4074;SDS011;2052;53.522;9.806;2023-06-14T14:15:26;8.13;;;3.43;;
4074;SDS011;2052;53.522;9.806;2023-06-14T14:17:53;6.03;;;3.40;;
4074;SDS011;2052;53.522;9.806;2023-06-14T14:20:22;9.40;;;3.90;;
4074;SDS011;2052;53.522;9.806;2023-06-14T14:22:49;6.67;;;3.10;;
4074;SDS011;2052;53.522;9.806;2023-06-14T14:25:15;4.30;;;2.87;;
4074;SDS011;2052;53.522;9.806;2023-06-14T14:27:47;8.80;;;3.33;;
4074;SDS011;2052;53.522;9.806;2023-06-14T14:30:16;7.10;;;3.67;;
4074;SDS011;2052;53.522;9.806;2023-06-14T14:32:44;5.60;;;3.00;;
4074;SDS011;2052;53.522;9.806;2023-06-14T14:35:14;5.77;;;3.40;;
4074;SDS011;2052;53.522;9.806;2023-06-14T14:37:40;4.07;;;2.97;;
4074;SDS011;2052;53.522;9.806;2023-06-14T14:40:07;4.90;;;3.50;;
4074;SDS011;2052;53.522;9.806;2023-06-14T14:42:35;6.10;;;3.00;;
4074;SDS011;2052;53.522;9.806;2023-06-14T14:45:02;5.20;;;3.37;;
4074;SDS011;2052;53.522;9.806;2023-06-14T14:47:30;8.77;;;3.33;;
4074;SDS011;2052;53.522;9.806;2023-06-14T14:49:56;4.70;;;2.90;;
4074;SDS011;2052;53.522;9.806;2023-06-14T14:52:23;6.50;;;3.30;;
4074;SDS011;2052;53.522;9.806;2023-06-14T14:54:49;5.83;;;2.90;;
4074;SDS011;2052;53.522;9.806;2023-06-14T14:57:16;4.73;;;3.30;;
4074;SDS011;2052;53.522;9.806;2023-06-14T14:59:43;4.40;;;3.50;;
4074;SDS011;2052;53.522;9.806;2023-06-14T15:02:10;4.33;;;3.03;;
4074;SDS011;2052;53.522;9.806;2023-06-14T15:04:38;4.70;;;3.20;;
4074;SDS011;2052;53.522;9.806;2023-06-14T15:07:05;3.67;;;2.93;;
4074;SDS011;2052;53.522;9.806;2023-06-14T15:09:32;4.00;;;2.70;;
4074;SDS011;2052;53.522;9.806;2023-06-14T15:11:58;7.40;;;3.40;;
4074;SDS011;2052;53.522;9.806;2023-06-14T15:14:25;4.00;;;3.40;;
4074;SDS011;2052;53.522;9.806;2023-06-14T15:16:52;5.10;;;3.33;;
4074;SDS011;2052;53.522;9.806;2023-06-14T15:19:19;4.97;;;3.43;;
4074;SDS011;2052;53.522;9.806;2023-06-14T15:21:46;4.93;;;3.00;;